createdAt,value
2023-05-09T00:00:50.923Z,19.50
2023-05-09T00:03:19.370Z,19.30
2023-05-09T00:05:48.333Z,17.30
2023-05-09T00:08:17.109Z,18.35
2023-05-09T00:10:45.936Z,16.20
2023-05-09T00:13:14.437Z,16.73
2023-05-09T00:15:44.408Z,16.48
2023-05-09T00:18:14.323Z,17.02
2023-05-09T00:20:44.400Z,17.92
2023-05-09T00:23:12.802Z,16.33
2023-05-09T00:25:41.234Z,17.23
2023-05-09T00:28:09.761Z,17.30
2023-05-09T00:30:38.179Z,16.73
2023-05-09T00:33:06.902Z,17.02
2023-05-09T00:35:36.950Z,17.85
2023-05-09T00:38:05.349Z,17.73
2023-05-09T00:40:33.647Z,17.17
2023-05-09T00:43:02.035Z,16.45
2023-05-09T00:45:31.013Z,17.10
2023-05-09T00:47:59.657Z,17.20
2023-05-09T00:50:28.509Z,17.15
2023-05-09T00:52:58.419Z,18.00
2023-05-09T00:55:27.350Z,16.55
2023-05-09T00:57:56.011Z,16.90
2023-05-09T01:00:24.576Z,17.30
2023-05-09T01:02:55.382Z,17.67
2023-05-09T01:05:26.236Z,17.35
2023-05-09T01:08:04.455Z,16.45
2023-05-09T01:10:40.777Z,15.90
2023-05-09T01:13:20.282Z,14.40
2023-05-09T01:15:55.009Z,16.38
2023-05-09T01:18:29.626Z,15.23
2023-05-09T01:21:03.645Z,15.32
2023-05-09T01:24:10.972Z,16.02
2023-05-09T01:26:47.112Z,14.90
2023-05-09T01:29:35.561Z,15.00
2023-05-09T01:32:08.495Z,16.00
2023-05-09T01:34:38.359Z,16.42
2023-05-09T01:37:08.293Z,15.02
2023-05-09T01:39:41.288Z,16.13
2023-05-09T01:42:12.302Z,15.45
2023-05-09T01:44:45.367Z,15.93
2023-05-09T01:47:16.365Z,16.80
2023-05-09T01:49:45.975Z,16.63
2023-05-09T01:52:18.306Z,17.52
2023-05-09T01:54:48.303Z,17.55
2023-05-09T01:57:18.470Z,16.02
2023-05-09T01:59:50.070Z,16.95
2023-05-09T02:02:19.187Z,18.38
2023-05-09T02:04:49.506Z,18.00
2023-05-09T02:07:18.391Z,17.95
2023-05-09T02:09:48.739Z,17.98
2023-05-09T02:12:17.216Z,19.25
2023-05-09T02:14:45.702Z,19.50
2023-05-09T02:17:17.070Z,20.30
2023-05-09T02:19:45.561Z,19.80
2023-05-09T02:22:14.769Z,18.70
2023-05-09T02:24:44.333Z,19.85
2023-05-09T02:27:14.033Z,20.38
2023-05-09T02:29:47.024Z,20.17
2023-05-09T02:32:18.314Z,19.92
2023-05-09T02:34:47.045Z,20.20
2023-05-09T02:37:16.644Z,20.17
2023-05-09T02:39:45.426Z,20.48
2023-05-09T02:42:16.979Z,20.58
2023-05-09T02:44:45.426Z,20.38
2023-05-09T02:47:13.851Z,21.38
2023-05-09T02:49:44.815Z,19.45
2023-05-09T02:52:13.522Z,21.55
2023-05-09T02:54:42.061Z,20.58
2023-05-09T02:57:10.517Z,20.52
2023-05-09T02:59:38.947Z,20.75
2023-05-09T03:02:07.736Z,20.63
2023-05-09T03:04:36.425Z,21.33
2023-05-09T03:07:06.140Z,20.65
2023-05-09T03:09:34.681Z,21.70
2023-05-09T03:12:03.884Z,20.80
2023-05-09T03:14:32.562Z,21.60
2023-05-09T03:17:00.960Z,20.95
2023-05-09T03:19:29.476Z,21.77
2023-05-09T03:21:57.971Z,21.20
2023-05-09T03:24:29.266Z,21.30
2023-05-09T03:26:57.766Z,21.63
2023-05-09T03:29:26.715Z,21.25
2023-05-09T03:31:55.387Z,22.35
2023-05-09T03:34:23.846Z,22.38
2023-05-09T03:36:52.145Z,24.30
2023-05-09T03:39:20.543Z,23.17
2023-05-09T03:41:50.298Z,22.50
2023-05-09T03:44:18.711Z,22.00
2023-05-09T03:46:47.200Z,22.75
2023-05-09T03:49:15.745Z,23.10
2023-05-09T03:51:44.143Z,22.60
2023-05-09T03:54:12.736Z,22.75
2023-05-09T03:56:41.254Z,22.60
2023-05-09T03:59:10.996Z,21.83
2023-05-09T04:01:40.321Z,23.15
2023-05-09T04:04:08.951Z,21.88
2023-05-09T04:06:38.235Z,22.55
2023-05-09T04:09:06.985Z,23.08
2023-05-09T04:11:35.424Z,22.45
2023-05-09T04:14:07.142Z,21.55
2023-05-09T04:16:37.070Z,21.23
2023-05-09T04:19:07.190Z,22.50
2023-05-09T04:21:35.600Z,21.83
2023-05-09T04:24:04.097Z,21.70
2023-05-09T04:26:32.688Z,20.63
2023-05-09T04:29:01.132Z,20.83
2023-05-09T04:31:29.878Z,19.55
2023-05-09T04:33:59.624Z,20.05
2023-05-09T04:36:28.969Z,20.67
2023-05-09T04:38:57.442Z,20.13
2023-05-09T04:41:25.760Z,19.85
2023-05-09T04:43:54.222Z,21.00
2023-05-09T04:46:24.958Z,19.95
2023-05-09T04:48:54.026Z,20.02
2023-05-09T04:51:24.085Z,20.10
2023-05-09T04:53:52.512Z,15.90
2023-05-09T04:56:21.736Z,19.30
2023-05-09T04:58:50.390Z,18.60
2023-05-09T05:01:18.895Z,20.00
2023-05-09T05:03:47.305Z,19.42
2023-05-09T05:06:15.868Z,18.77
2023-05-09T05:08:45.754Z,20.25
2023-05-09T05:11:14.362Z,19.98
2023-05-09T05:13:42.747Z,17.55
2023-05-09T05:16:11.435Z,18.90
2023-05-09T05:18:39.967Z,18.80
2023-05-09T05:21:08.561Z,17.25
2023-05-09T05:23:36.928Z,17.77
2023-05-09T05:26:06.591Z,17.45
2023-05-09T05:28:35.117Z,17.42
2023-05-09T05:31:03.965Z,17.92
2023-05-09T05:33:32.504Z,18.05
2023-05-09T05:36:00.817Z,17.52
2023-05-09T05:38:29.081Z,16.77
2023-05-09T05:40:57.599Z,15.90
2023-05-09T05:43:27.167Z,15.75
2023-05-09T05:45:56.259Z,14.82
2023-05-09T05:48:24.778Z,15.05
2023-05-09T05:50:53.489Z,13.35
2023-05-09T05:53:21.815Z,12.88
2023-05-09T05:55:50.421Z,13.13
2023-05-09T05:58:19.252Z,13.63
2023-05-09T06:00:49.111Z,13.15
2023-05-09T06:03:17.713Z,12.90
2023-05-09T06:05:47.681Z,12.88
2023-05-09T06:08:16.046Z,13.70
2023-05-09T06:10:44.998Z,12.95
2023-05-09T06:13:13.749Z,13.55
2023-05-09T06:15:42.285Z,13.02
2023-05-09T06:18:11.983Z,12.88
2023-05-09T06:20:40.510Z,12.77
2023-05-09T06:23:08.872Z,12.80
2023-05-09T06:25:37.559Z,12.57
2023-05-09T06:28:06.063Z,12.30
2023-05-09T06:30:34.535Z,10.65
2023-05-09T06:33:03.132Z,12.63
2023-05-09T06:35:32.770Z,11.25
2023-05-09T06:38:01.149Z,11.23
2023-05-09T06:40:29.557Z,11.77
2023-05-09T06:42:58.009Z,12.02
2023-05-09T06:45:27.120Z,12.52
2023-05-09T06:47:55.587Z,12.02
2023-05-09T06:50:24.435Z,11.02
2023-05-09T06:52:53.974Z,10.70
2023-05-09T06:55:22.405Z,10.02
2023-05-09T06:57:51.071Z,9.63
2023-05-09T07:00:19.860Z,9.55
2023-05-09T07:02:48.337Z,9.18
2023-05-09T07:05:17.553Z,9.65
2023-05-09T07:07:46.086Z,9.68
2023-05-09T07:10:15.930Z,9.02
2023-05-09T07:12:44.341Z,8.73
2023-05-09T07:15:13.044Z,9.57
2023-05-09T07:17:42.116Z,8.00
2023-05-09T07:20:10.694Z,8.48
2023-05-09T07:22:39.195Z,8.32
2023-05-09T07:25:09.561Z,8.40
2023-05-09T07:27:39.330Z,8.50
2023-05-09T07:30:09.327Z,6.80
2023-05-09T07:32:37.840Z,6.80
2023-05-09T07:35:06.910Z,6.47
2023-05-09T07:37:35.896Z,6.07
2023-05-09T07:40:05.994Z,6.03
2023-05-09T07:42:34.590Z,6.68
2023-05-09T07:45:06.185Z,6.38
2023-05-09T07:47:34.625Z,5.85
2023-05-09T07:50:03.105Z,6.13
2023-05-09T07:52:31.633Z,6.25
2023-05-09T07:55:00.149Z,6.15
2023-05-09T07:57:28.649Z,6.00
2023-05-09T07:59:57.170Z,5.93
2023-05-09T08:02:27.175Z,4.97
2023-05-09T08:04:55.798Z,5.53
2023-05-09T08:07:24.183Z,5.20
2023-05-09T08:09:52.947Z,5.38
2023-05-09T08:12:21.433Z,4.60
2023-05-09T08:14:49.850Z,4.53
2023-05-09T08:17:18.406Z,4.93
2023-05-09T08:19:48.154Z,4.78
2023-05-09T08:22:19.605Z,5.90
2023-05-09T08:24:48.181Z,5.50
2023-05-09T08:27:16.593Z,5.85
2023-05-09T08:29:45.404Z,4.75
2023-05-09T08:32:14.256Z,4.45
2023-05-09T08:34:42.640Z,4.20
2023-05-09T08:37:14.363Z,4.07
2023-05-09T08:39:43.580Z,3.60
2023-05-09T08:42:12.460Z,4.00
2023-05-09T08:44:40.943Z,3.42
2023-05-09T08:47:09.787Z,3.30
2023-05-09T08:49:38.302Z,3.53
2023-05-09T08:52:07.084Z,3.45
2023-05-09T08:54:37.133Z,3.70
2023-05-09T08:57:05.691Z,3.38
2023-05-09T08:59:36.818Z,3.70
2023-05-09T09:02:08.401Z,3.80
2023-05-09T09:04:37.199Z,3.10
2023-05-09T09:07:06.745Z,3.60
2023-05-09T09:09:37.304Z,3.75
2023-05-09T09:12:09.633Z,3.35
2023-05-09T09:14:40.515Z,3.78
2023-05-09T09:17:12.194Z,3.40
2023-05-09T09:19:44.306Z,3.08
2023-05-09T09:22:16.644Z,3.00
2023-05-09T09:24:46.548Z,2.83
2023-05-09T09:27:15.161Z,2.88
2023-05-09T09:29:44.523Z,2.65
2023-05-09T09:32:13.107Z,2.10
2023-05-09T09:34:41.620Z,2.60
2023-05-09T09:37:10.158Z,2.30
2023-05-09T09:39:38.730Z,2.35
2023-05-09T09:42:15.485Z,2.63
2023-05-09T09:44:43.926Z,2.47
2023-05-09T09:47:12.572Z,2.72
2023-05-09T09:49:47.893Z,2.67
2023-05-09T09:52:24.809Z,2.90
2023-05-09T09:54:56.532Z,3.03
2023-05-09T09:57:41.651Z,3.30
2023-05-09T10:00:11.629Z,2.95
2023-05-09T10:02:49.515Z,3.70
2023-05-09T10:05:22.582Z,3.05
2023-05-09T10:07:57.284Z,3.35
2023-05-09T10:10:28.352Z,3.60
2023-05-09T10:13:00.260Z,3.85
2023-05-09T10:15:38.512Z,3.10
2023-05-09T10:18:18.242Z,3.65
2023-05-09T10:20:48.137Z,4.78
2023-05-09T10:23:19.292Z,5.70
2023-05-09T10:25:52.709Z,6.93
2023-05-09T10:28:31.217Z,7.68
2023-05-09T10:31:08.637Z,8.90
2023-05-09T10:33:43.791Z,8.33
2023-05-09T10:36:13.328Z,9.23
2023-05-09T10:38:43.066Z,10.95
2023-05-09T10:41:12.471Z,10.85
2023-05-09T10:43:44.288Z,13.03
2023-05-09T10:46:14.417Z,16.80
2023-05-09T10:48:44.140Z,19.63
2023-05-09T10:51:14.458Z,21.47
2023-05-09T10:53:44.628Z,22.33
2023-05-09T10:56:25.148Z,22.53
2023-05-09T10:58:55.628Z,22.25
2023-05-09T11:01:32.978Z,19.90
2023-05-09T11:04:02.058Z,16.03
2023-05-09T11:06:46.617Z,13.80
2023-05-09T11:09:28.645Z,14.52
2023-05-09T11:11:58.456Z,15.37
2023-05-09T11:14:40.681Z,14.00
2023-05-09T11:17:09.745Z,11.10
2023-05-09T11:19:40.645Z,11.90
2023-05-09T11:22:16.429Z,11.10
2023-05-09T11:24:48.637Z,10.13
2023-05-09T11:27:18.017Z,10.27
2023-05-09T11:29:52.308Z,10.50
2023-05-09T11:32:21.911Z,10.73
2023-05-09T11:34:51.152Z,10.33
2023-05-09T11:37:20.154Z,10.82
2023-05-09T11:39:59.237Z,12.07
2023-05-09T11:42:29.146Z,11.40
2023-05-09T11:45:00.037Z,12.00
2023-05-09T11:47:30.842Z,10.83
2023-05-09T11:49:59.305Z,12.47
2023-05-09T11:52:27.800Z,10.17
2023-05-09T11:54:56.265Z,9.40
2023-05-09T11:57:24.957Z,8.73
2023-05-09T11:59:53.894Z,10.33
2023-05-09T12:02:24.485Z,10.10
2023-05-09T12:04:54.211Z,10.20
2023-05-09T12:07:22.727Z,9.40
2023-05-09T12:09:52.264Z,9.13
2023-05-09T12:12:21.841Z,9.77
2023-05-09T12:14:50.691Z,9.55
2023-05-09T12:17:19.049Z,10.00
2023-05-09T12:19:48.612Z,9.70
2023-05-09T12:22:17.080Z,10.07
2023-05-09T12:24:45.442Z,10.33
2023-05-09T12:27:14.440Z,11.10
2023-05-09T12:29:46.241Z,10.68
2023-05-09T12:32:15.486Z,9.63
2023-05-09T12:34:45.526Z,11.43
2023-05-09T12:37:19.181Z,10.40
2023-05-09T12:40:02.237Z,10.83
2023-05-09T12:42:30.903Z,10.90
2023-05-09T12:44:59.389Z,11.53
2023-05-09T12:47:31.790Z,11.03
2023-05-09T12:50:00.966Z,11.97
2023-05-09T12:52:41.737Z,12.03
2023-05-09T12:55:20.641Z,11.60
2023-05-09T12:58:00.675Z,11.85
2023-05-09T13:00:29.250Z,10.37
2023-05-09T13:02:57.905Z,10.77
2023-05-09T13:05:26.609Z,11.40
2023-05-09T13:07:58.826Z,10.97
2023-05-09T13:10:28.961Z,11.25
2023-05-09T13:12:57.508Z,10.50
2023-05-09T13:15:26.809Z,10.45
2023-05-09T13:17:55.859Z,11.03
2023-05-09T13:20:24.435Z,11.52
2023-05-09T13:22:52.893Z,11.30
2023-05-09T13:25:22.599Z,12.65
2023-05-09T13:27:51.340Z,10.70
2023-05-09T13:30:20.686Z,11.13
2023-05-09T13:32:49.331Z,9.57
2023-05-09T13:35:18.230Z,9.87
2023-05-09T13:37:46.794Z,10.35
2023-05-09T13:40:16.008Z,10.95
2023-05-09T13:42:45.946Z,10.65
2023-05-09T13:45:14.467Z,10.73
2023-05-09T13:47:43.081Z,10.70
2023-05-09T13:50:12.520Z,10.52
2023-05-09T13:52:41.388Z,11.10
2023-05-09T13:55:09.969Z,12.00
2023-05-09T13:57:38.361Z,10.82
2023-05-09T14:00:09.690Z,10.93
2023-05-09T14:02:38.055Z,10.63
2023-05-09T14:05:07.211Z,10.60
2023-05-09T14:07:35.695Z,10.32
2023-05-09T14:12:36.354Z,10.05
2023-05-09T14:15:04.821Z,8.93
2023-05-09T14:17:34.487Z,9.35
2023-05-09T14:20:03.833Z,8.30
2023-05-09T14:22:32.155Z,8.73
2023-05-09T14:25:00.640Z,8.00
2023-05-09T14:27:29.073Z,8.07
2023-05-09T14:29:57.816Z,8.65
2023-05-09T14:32:27.266Z,8.70
2023-05-09T14:34:57.043Z,8.13
2023-05-09T14:37:25.466Z,8.93
2023-05-09T14:39:53.860Z,8.17
2023-05-09T14:42:22.577Z,8.73
2023-05-09T14:44:51.037Z,7.32
2023-05-09T14:47:19.489Z,7.60
2023-05-09T14:49:48.323Z,7.82
2023-05-09T14:52:18.604Z,7.03
2023-05-09T14:54:47.085Z,7.05
2023-05-09T14:57:15.672Z,7.30
2023-05-09T14:59:43.911Z,7.75
2023-05-09T15:02:12.465Z,6.88
2023-05-09T15:04:43.731Z,6.40
2023-05-09T15:07:12.770Z,6.47
2023-05-09T15:09:45.119Z,6.32
2023-05-09T15:12:13.497Z,6.18
2023-05-09T15:14:41.925Z,6.80
2023-05-09T15:17:10.534Z,6.68
2023-05-09T15:19:39.013Z,6.57
2023-05-09T15:22:08.672Z,7.38
2023-05-09T15:24:37.100Z,7.97
2023-05-09T15:27:06.714Z,8.20
2023-05-09T15:29:35.202Z,7.72
2023-05-09T15:32:03.687Z,7.55
2023-05-09T15:34:32.157Z,8.40
2023-05-09T15:37:00.648Z,7.85
2023-05-09T15:39:29.106Z,7.18
2023-05-09T15:41:57.813Z,8.40
2023-05-09T15:44:27.719Z,9.00
2023-05-09T15:46:58.641Z,10.60
2023-05-09T15:49:27.104Z,9.07
2023-05-09T15:51:55.521Z,8.95
2023-05-09T15:54:26.465Z,9.20
2023-05-09T15:56:54.935Z,7.90
2023-05-09T15:59:23.382Z,9.13
2023-05-09T16:01:53.371Z,8.35
2023-05-09T16:04:21.987Z,6.90
2023-05-09T16:06:51.774Z,6.72
2023-05-09T16:09:20.648Z,6.28
2023-05-09T16:11:49.146Z,6.30
2023-05-09T16:14:17.619Z,5.22
2023-05-09T16:16:47.171Z,4.70
2023-05-09T16:19:16.701Z,4.60
2023-05-09T16:21:47.491Z,5.05
2023-05-09T16:24:15.715Z,4.20
2023-05-09T16:26:44.147Z,3.22
2023-05-09T16:29:13.899Z,4.75
2023-05-09T16:31:42.508Z,4.53
2023-05-09T16:34:10.892Z,3.60
2023-05-09T16:36:40.574Z,3.80
2023-05-09T16:39:09.134Z,3.13
2023-05-09T16:41:37.533Z,3.50
2023-05-09T16:44:06.050Z,3.35
2023-05-09T16:46:34.516Z,2.63
2023-05-09T16:49:03.325Z,2.60
2023-05-09T16:51:31.966Z,2.70
2023-05-09T16:54:01.736Z,2.30
2023-05-09T16:56:30.173Z,2.10
2023-05-09T16:58:58.883Z,2.20
2023-05-09T17:01:27.421Z,2.25
2023-05-09T17:03:56.460Z,2.38
2023-05-09T17:06:24.959Z,2.25
2023-05-09T17:08:53.346Z,2.40
2023-05-09T17:11:23.391Z,2.40
2023-05-09T17:13:51.861Z,2.33
2023-05-09T17:16:20.297Z,2.50
2023-05-09T17:18:48.798Z,2.33
2023-05-09T17:21:17.533Z,2.50
2023-05-09T17:23:45.979Z,3.00
2023-05-09T17:26:14.495Z,3.70
2023-05-09T17:28:44.228Z,2.70
2023-05-09T17:31:13.371Z,2.83
2023-05-09T17:33:42.010Z,3.15
2023-05-09T17:36:10.691Z,3.10
2023-05-09T17:38:39.529Z,3.40
2023-05-09T17:41:07.946Z,3.72
2023-05-09T17:43:36.309Z,3.10
2023-05-09T17:46:06.221Z,3.38
2023-05-09T17:48:34.697Z,3.60
2023-05-09T17:51:03.173Z,3.08
2023-05-09T17:53:31.534Z,4.47
2023-05-09T17:55:59.942Z,3.85
2023-05-09T17:58:28.925Z,4.03
2023-05-09T18:00:58.964Z,4.53
2023-05-09T18:03:29.897Z,3.88
2023-05-09T18:06:00.383Z,4.38
2023-05-09T18:08:29.620Z,4.60
2023-05-09T18:10:58.411Z,4.57
2023-05-09T18:13:27.018Z,4.95
2023-05-09T18:15:59.696Z,4.80
2023-05-09T18:18:31.097Z,4.75
2023-05-09T18:21:00.536Z,4.43
2023-05-09T18:23:28.894Z,4.15
2023-05-09T18:25:57.321Z,5.03
2023-05-09T18:28:27.642Z,4.90
2023-05-09T18:30:57.771Z,4.57
2023-05-09T18:33:29.250Z,4.97
2023-05-09T18:35:57.663Z,4.95
2023-05-09T18:38:26.110Z,4.80
2023-05-09T18:40:54.547Z,4.60
2023-05-09T18:43:23.264Z,4.10
2023-05-09T18:45:51.993Z,4.10
2023-05-09T18:48:20.566Z,4.60
2023-05-09T18:50:52.572Z,3.80
2023-05-09T18:53:21.498Z,4.78
2023-05-09T18:55:50.045Z,4.60
2023-05-09T18:58:18.471Z,4.10
2023-05-09T19:00:47.068Z,3.95
2023-05-09T19:03:15.581Z,4.47
2023-05-09T19:05:44.074Z,5.57
2023-05-09T19:08:14.030Z,5.10
2023-05-09T19:10:42.626Z,4.93
2023-05-09T19:13:12.801Z,4.40
2023-05-09T19:15:42.478Z,4.95
2023-05-09T19:18:10.845Z,4.90
2023-05-09T19:20:39.205Z,4.78
2023-05-09T19:23:07.841Z,5.10
2023-05-09T19:25:38.005Z,6.67
2023-05-09T19:28:06.416Z,6.63
2023-05-09T19:30:36.068Z,6.70
2023-05-09T19:33:04.645Z,8.05
2023-05-09T19:35:33.145Z,8.25
2023-05-09T19:38:01.482Z,6.97
2023-05-09T19:40:30.067Z,6.72
2023-05-09T19:42:59.640Z,6.47
2023-05-09T19:45:28.118Z,6.15
2023-05-09T19:47:56.768Z,6.27
2023-05-09T19:50:25.172Z,7.30
2023-05-09T19:52:53.596Z,8.70
2023-05-09T19:55:21.880Z,9.75
2023-05-09T19:57:50.282Z,7.75
2023-05-09T20:00:20.894Z,8.20
2023-05-09T20:02:49.940Z,6.78
2023-05-09T20:05:18.345Z,7.05
2023-05-09T20:07:46.937Z,5.82
2023-05-09T20:10:15.670Z,6.88
2023-05-09T20:12:44.475Z,6.95
2023-05-09T20:15:13.708Z,6.22
2023-05-09T20:17:43.376Z,6.53
2023-05-09T20:20:12.677Z,6.18
2023-05-09T20:22:41.176Z,6.43
2023-05-09T20:25:10.109Z,7.05
2023-05-09T20:27:38.533Z,6.63
2023-05-09T20:30:07.883Z,6.82
2023-05-09T20:32:36.336Z,6.57
2023-05-09T20:35:06.678Z,7.28
2023-05-09T20:37:35.207Z,6.70
2023-05-09T20:40:06.442Z,6.40
2023-05-09T20:42:35.086Z,7.15
2023-05-09T20:45:03.985Z,6.65
2023-05-09T20:47:32.298Z,6.88
2023-05-09T20:50:01.081Z,7.22
2023-05-09T20:52:30.868Z,7.43
2023-05-09T20:55:00.229Z,7.88
2023-05-09T20:57:28.685Z,8.30
2023-05-09T20:59:57.351Z,8.25
2023-05-09T21:02:25.811Z,7.53
2023-05-09T21:04:54.238Z,7.93
2023-05-09T21:07:22.609Z,7.80
2023-05-09T21:09:54.120Z,8.67
2023-05-09T21:12:22.724Z,9.00
2023-05-09T21:14:51.795Z,9.50
2023-05-09T21:17:20.588Z,10.18
2023-05-09T21:19:51.655Z,10.13
2023-05-09T21:22:20.093Z,11.80
2023-05-09T21:24:48.400Z,10.82
2023-05-09T21:27:18.154Z,11.83
2023-05-09T21:29:49.318Z,10.10
2023-05-09T21:32:17.935Z,9.93
2023-05-09T21:34:48.411Z,11.37
2023-05-09T21:37:17.164Z,10.47
2023-05-09T21:39:46.177Z,10.60
2023-05-09T21:42:14.650Z,12.30
2023-05-09T21:44:44.252Z,12.40
2023-05-09T21:47:12.744Z,12.53
2023-05-09T21:49:42.022Z,12.23
2023-05-09T21:52:10.509Z,14.20
2023-05-09T21:54:38.967Z,13.07
2023-05-09T21:57:07.471Z,11.17
2023-05-09T21:59:35.827Z,12.30
2023-05-09T22:02:05.605Z,12.17
2023-05-09T22:04:34.163Z,12.20
2023-05-09T22:07:02.716Z,12.10
2023-05-09T22:09:31.500Z,10.77
2023-05-09T22:12:00.367Z,11.37
2023-05-09T22:14:28.742Z,11.47
2023-05-09T22:16:57.200Z,11.37
2023-05-09T22:19:27.036Z,10.60
2023-05-09T22:21:55.391Z,11.13
2023-05-09T22:24:23.944Z,12.10
2023-05-09T22:26:52.400Z,12.50
2023-05-09T22:29:21.387Z,11.30
2023-05-09T22:31:49.760Z,12.40
2023-05-09T22:34:18.201Z,12.73
2023-05-09T22:36:47.789Z,13.27
2023-05-09T22:39:16.581Z,13.97
2023-05-09T22:41:45.065Z,14.07
2023-05-09T22:44:13.477Z,12.93
2023-05-09T22:46:41.924Z,13.57
2023-05-09T22:49:10.963Z,12.93
2023-05-09T22:51:39.384Z,13.03
2023-05-09T22:54:09.263Z,14.23
2023-05-09T22:56:38.122Z,14.27
2023-05-09T22:59:06.292Z,14.83
2023-05-09T23:01:34.718Z,15.37
2023-05-09T23:04:03.286Z,16.13
2023-05-09T23:06:32.822Z,14.90
2023-05-09T23:09:01.191Z,16.70
2023-05-09T23:11:30.974Z,16.70
2023-05-09T23:13:59.348Z,17.97
2023-05-09T23:16:27.786Z,16.40
2023-05-09T23:18:56.321Z,17.83
2023-05-09T23:21:24.780Z,17.10
2023-05-09T23:23:53.170Z,15.60
2023-05-09T23:26:21.872Z,14.90
2023-05-09T23:28:51.564Z,16.70
2023-05-09T23:31:20.484Z,16.37
2023-05-09T23:33:49.035Z,15.77
2023-05-09T23:36:17.434Z,14.60
2023-05-09T23:38:45.838Z,16.13
2023-05-09T23:41:14.424Z,15.53
2023-05-09T23:43:43.772Z,19.73
2023-05-09T23:46:13.617Z,21.13
2023-05-09T23:48:42.492Z,22.70
2023-05-09T23:51:10.923Z,24.30
2023-05-09T23:53:39.218Z,22.47
2023-05-09T23:56:08.439Z,23.73
2023-05-09T23:58:36.856Z,21.97
